AAL1118 KJQF-KDCA
Flight info
| Callsign | AAL1118 |
|---|---|
| Flight time | 0h 47m |
| Altitude | 37000 |
| Route | KILNS5 AUDII WAVES CAPSS3 |
| Aircraft | B738/M-VGDW/C |
Departure
| Time | 2026-04-30 19:26 |
|---|---|
| Airport | Concord-Padgett Regional Airport (KJQF) |
Arrival
| Time | 2026-04-30 20:13 |
|---|---|
| Airport | Ronald Reagan Washington National Airport (KDCA) |
| Time | Latitude | Longitude | Altitude | Speed | Heading |
|---|---|---|---|---|---|
| 2026-04-30 19:03 | 35.37986 | -80.71333 | 632 ft | 0 kts | 325° |
| 2026-04-30 19:18 | 35.37984 | -80.71332 | 632 ft | 2 kts | 324° |
| 2026-04-30 19:18 | 35.37975 | -80.71310 | 632 ft | 2 kts | 269° |
| 2026-04-30 19:18 | 35.37979 | -80.71293 | 632 ft | 2 kts | 234° |
| 2026-04-30 19:19 | 35.37990 | -80.71281 | 633 ft | 1 kts | 200° |
| 2026-04-30 19:19 | 35.37996 | -80.71280 | 633 ft | 1 kts | 189° |
| 2026-04-30 19:19 | 35.37999 | -80.71279 | 633 ft | 0 kts | 192° |
| 2026-04-30 19:24 | 35.37922 | -80.71252 | 631 ft | 10 kts | 174° |
| 2026-04-30 19:25 | 35.37803 | -80.71154 | 628 ft | 4 kts | 49° |
| 2026-04-30 19:26 | 35.38109 | -80.71066 | 641 ft | 73 kts | 10° |
| 2026-04-30 19:26 | 35.39884 | -80.70624 | 884 ft | 167 kts | 18° |
| 2026-04-30 19:26 | 35.40950 | -80.69915 | 1344 ft | 184 kts | 41° |
| 2026-04-30 19:27 | 35.42632 | -80.67329 | 2218 ft | 201 kts | 52° |
| 2026-04-30 19:27 | 35.44307 | -80.64450 | 3092 ft | 214 kts | 52° |
| 2026-04-30 19:28 | 35.45101 | -80.62874 | 3541 ft | 230 kts | 67° |
| 2026-04-30 19:28 | 35.44957 | -80.58643 | 4419 ft | 270 kts | 100° |
| 2026-04-30 19:29 | 35.44449 | -80.53880 | 5537 ft | 290 kts | 90° |
| 2026-04-30 19:29 | 35.44379 | -80.51409 | 6261 ft | 293 kts | 89° |
| 2026-04-30 19:30 | 35.44132 | -80.43816 | 8412 ft | 305 kts | 91° |
| 2026-04-30 19:30 | 35.43916 | -80.38494 | 9639 ft | 319 kts | 91° |
| 2026-04-30 19:31 | 35.43701 | -80.32983 | 10525 ft | 341 kts | 92° |
| 2026-04-30 19:31 | 35.43576 | -80.29979 | 10765 ft | 359 kts | 92° |
| 2026-04-30 19:31 | 35.43283 | -80.23606 | 11364 ft | 387 kts | 92° |
| 2026-04-30 19:32 | 35.43136 | -80.20278 | 11886 ft | 393 kts | 92° |
| 2026-04-30 19:32 | 35.43066 | -80.16924 | 12371 ft | 399 kts | 86° |
| 2026-04-30 19:32 | 35.43494 | -80.13563 | 12845 ft | 402 kts | 72° |
| 2026-04-30 19:32 | 35.44410 | -80.10327 | 13572 ft | 399 kts | 65° |
| 2026-04-30 19:33 | 35.45476 | -80.07182 | 14188 ft | 401 kts | 64° |
| 2026-04-30 19:33 | 35.46557 | -80.04007 | 14690 ft | 408 kts | 64° |
| 2026-04-30 19:33 | 35.47613 | -80.00764 | 15249 ft | 411 kts | 65° |
| 2026-04-30 19:33 | 35.48639 | -79.97479 | 15836 ft | 414 kts | 66° |
| 2026-04-30 19:34 | 35.49636 | -79.94154 | 16293 ft | 420 kts | 67° |
| 2026-04-30 19:34 | 35.50629 | -79.90784 | 16721 ft | 425 kts | 67° |
| 2026-04-30 19:34 | 35.52936 | -79.84044 | 17571 ft | 431 kts | 56° |
| 2026-04-30 19:35 | 35.54584 | -79.81071 | 18221 ft | 423 kts | 45° |
| 2026-04-30 19:35 | 35.56580 | -79.78397 | 18633 ft | 423 kts | 38° |
| 2026-04-30 19:35 | 35.58733 | -79.75922 | 19004 ft | 426 kts | 35° |
| 2026-04-30 19:35 | 35.60938 | -79.73520 | 19493 ft | 427 kts | 34° |
| 2026-04-30 19:36 | 35.63206 | -79.71068 | 19903 ft | 431 kts | 34° |
| 2026-04-30 19:36 | 35.65465 | -79.68616 | 20181 ft | 438 kts | 34° |
| 2026-04-30 19:36 | 35.70010 | -79.63625 | 21161 ft | 440 kts | 34° |
| 2026-04-30 19:37 | 35.72313 | -79.61069 | 21487 ft | 445 kts | 35° |
| 2026-04-30 19:37 | 35.74608 | -79.58503 | 21909 ft | 447 kts | 34° |
| 2026-04-30 19:37 | 35.76901 | -79.55934 | 22215 ft | 451 kts | 34° |
| 2026-04-30 19:37 | 35.79250 | -79.53304 | 22621 ft | 453 kts | 34° |
| 2026-04-30 19:38 | 35.81583 | -79.50684 | 23050 ft | 454 kts | 34° |
| 2026-04-30 19:38 | 35.83929 | -79.48043 | 23256 ft | 461 kts | 34° |
| 2026-04-30 19:38 | 35.86316 | -79.45364 | 23584 ft | 464 kts | 34° |
| 2026-04-30 19:38 | 35.88708 | -79.42687 | 23926 ft | 467 kts | 34° |
| 2026-04-30 19:39 | 35.91118 | -79.39989 | 24325 ft | 468 kts | 34° |
| 2026-04-30 19:39 | 35.93525 | -79.37270 | 24729 ft | 469 kts | 34° |
| 2026-04-30 19:39 | 35.95901 | -79.34577 | 25216 ft | 467 kts | 34° |
| 2026-04-30 19:39 | 35.98298 | -79.31866 | 25548 ft | 468 kts | 34° |
| 2026-04-30 19:40 | 36.00719 | -79.29147 | 25824 ft | 471 kts | 34° |
| 2026-04-30 19:40 | 36.03142 | -79.26417 | 26148 ft | 472 kts | 34° |
| 2026-04-30 19:40 | 36.05587 | -79.23659 | 26424 ft | 474 kts | 34° |
| 2026-04-30 19:40 | 36.08010 | -79.20919 | 26685 ft | 477 kts | 34° |
| 2026-04-30 19:41 | 36.10471 | -79.18122 | 26902 ft | 481 kts | 34° |
| 2026-04-30 19:41 | 36.12932 | -79.15316 | 27126 ft | 484 kts | 34° |
| 2026-04-30 19:41 | 36.15409 | -79.12483 | 27290 ft | 489 kts | 34° |
| 2026-04-30 19:41 | 36.17903 | -79.09618 | 27617 ft | 489 kts | 34° |
| 2026-04-30 19:42 | 36.20416 | -79.06735 | 28086 ft | 485 kts | 34° |
| 2026-04-30 19:42 | 36.22886 | -79.03914 | 28408 ft | 486 kts | 34° |
| 2026-04-30 19:42 | 36.25363 | -79.01098 | 28576 ft | 489 kts | 34° |
| 2026-04-30 19:42 | 36.27897 | -78.98214 | 28743 ft | 493 kts | 34° |
| 2026-04-30 19:43 | 36.30413 | -78.95343 | 28998 ft | 495 kts | 34° |
| 2026-04-30 19:43 | 36.32972 | -78.92412 | 29160 ft | 499 kts | 34° |
| 2026-04-30 19:43 | 36.35503 | -78.89503 | 29365 ft | 501 kts | 34° |
| 2026-04-30 19:44 | 36.40572 | -78.83631 | 30156 ft | 497 kts | 34° |
| 2026-04-30 19:44 | 36.45662 | -78.77753 | 30365 ft | 505 kts | 34° |
| 2026-04-30 19:44 | 36.48238 | -78.74801 | 30575 ft | 506 kts | 34° |
| 2026-04-30 19:45 | 36.50840 | -78.71828 | 30832 ft | 506 kts | 33° |
| 2026-04-30 19:45 | 36.53456 | -78.68832 | 31093 ft | 506 kts | 34° |
| 2026-04-30 19:45 | 36.56023 | -78.65894 | 31418 ft | 504 kts | 33° |
| 2026-04-30 19:45 | 36.58596 | -78.62945 | 31629 ft | 505 kts | 34° |
| 2026-04-30 19:46 | 36.61172 | -78.59965 | 31928 ft | 504 kts | 34° |
| 2026-04-30 19:46 | 36.63737 | -78.56980 | 32298 ft | 501 kts | 33° |
| 2026-04-30 19:46 | 36.66283 | -78.54037 | 32557 ft | 500 kts | 33° |
| 2026-04-30 19:46 | 36.68842 | -78.51106 | 32733 ft | 501 kts | 32° |
| 2026-04-30 19:47 | 36.71426 | -78.48165 | 32906 ft | 503 kts | 33° |
| 2026-04-30 19:47 | 36.76550 | -78.42296 | 33196 ft | 503 kts | 33° |
| 2026-04-30 19:47 | 36.79126 | -78.39317 | 33388 ft | 503 kts | 33° |
| 2026-04-30 19:48 | 36.81669 | -78.36349 | 33460 ft | 505 kts | 33° |
| 2026-04-30 19:48 | 36.86826 | -78.30322 | 33573 ft | 508 kts | 34° |
| 2026-04-30 19:48 | 36.89383 | -78.27353 | 33698 ft | 506 kts | 34° |
| 2026-04-30 19:49 | 36.91965 | -78.24320 | 33760 ft | 508 kts | 34° |
| 2026-04-30 19:49 | 36.97071 | -78.18259 | 33947 ft | 507 kts | 34° |
| 2026-04-30 19:49 | 36.99662 | -78.15194 | 33955 ft | 510 kts | 34° |
| 2026-04-30 19:50 | 37.02209 | -78.12185 | 34080 ft | 508 kts | 35° |
| 2026-04-30 19:50 | 37.04784 | -78.09162 | 33989 ft | 507 kts | 34° |
| 2026-04-30 19:50 | 37.07341 | -78.06175 | 33669 ft | 501 kts | 34° |
| 2026-04-30 19:50 | 37.09885 | -78.03183 | 33162 ft | 499 kts | 35° |
| 2026-04-30 19:51 | 37.12408 | -78.00201 | 32674 ft | 496 kts | 36° |
| 2026-04-30 19:51 | 37.14909 | -77.97269 | 32107 ft | 494 kts | 35° |
| 2026-04-30 19:51 | 37.16811 | -77.95042 | 31610 ft | 495 kts | 36° |
| 2026-04-30 19:51 | 37.19322 | -77.92100 | 30986 ft | 494 kts | 36° |
| 2026-04-30 19:52 | 37.21791 | -77.89190 | 30265 ft | 497 kts | 36° |
| 2026-04-30 19:52 | 37.24325 | -77.86179 | 29395 ft | 500 kts | 37° |
| 2026-04-30 19:52 | 37.26838 | -77.83155 | 28796 ft | 498 kts | 38° |
| 2026-04-30 19:52 | 37.29282 | -77.80151 | 28525 ft | 495 kts | 38° |
| 2026-04-30 19:53 | 37.31739 | -77.77110 | 28265 ft | 497 kts | 38° |
| 2026-04-30 19:53 | 37.34177 | -77.74113 | 28003 ft | 497 kts | 38° |
| 2026-04-30 19:53 | 37.36674 | -77.71081 | 27733 ft | 495 kts | 38° |
| 2026-04-30 19:53 | 37.39128 | -77.68143 | 27405 ft | 491 kts | 37° |
| 2026-04-30 19:54 | 37.41617 | -77.65198 | 26711 ft | 489 kts | 37° |
| 2026-04-30 19:54 | 37.44085 | -77.62314 | 25930 ft | 489 kts | 37° |
| 2026-04-30 19:54 | 37.46596 | -77.59383 | 25172 ft | 488 kts | 38° |
| 2026-04-30 19:54 | 37.49063 | -77.56482 | 24388 ft | 487 kts | 38° |
| 2026-04-30 19:55 | 37.51530 | -77.53564 | 23607 ft | 485 kts | 38° |
| 2026-04-30 19:55 | 37.53952 | -77.50691 | 22860 ft | 483 kts | 38° |
| 2026-04-30 19:55 | 37.56411 | -77.47829 | 22116 ft | 480 kts | 36° |
| 2026-04-30 19:55 | 37.59002 | -77.45268 | 21844 ft | 454 kts | 25° |
| 2026-04-30 19:56 | 37.61694 | -77.43623 | 21857 ft | 414 kts | 11° |
| 2026-04-30 19:56 | 37.64373 | -77.42668 | 21860 ft | 394 kts | 4° |
| 2026-04-30 19:56 | 37.67043 | -77.41966 | 21861 ft | 396 kts | 3° |
| 2026-04-30 19:56 | 37.69763 | -77.41277 | 21880 ft | 403 kts | 4° |
| 2026-04-30 19:57 | 37.72538 | -77.40517 | 21766 ft | 407 kts | 5° |
| 2026-04-30 19:57 | 37.75273 | -77.39706 | 21212 ft | 408 kts | 6° |
| 2026-04-30 19:57 | 37.78037 | -77.38845 | 20508 ft | 409 kts | 6° |
| 2026-04-30 19:57 | 37.80788 | -77.37974 | 19870 ft | 409 kts | 6° |
| 2026-04-30 19:58 | 37.83533 | -77.37102 | 19230 ft | 403 kts | 6° |
| 2026-04-30 19:58 | 37.86232 | -77.36253 | 18631 ft | 393 kts | 6° |
| 2026-04-30 19:58 | 37.88847 | -77.35440 | 18036 ft | 384 kts | 6° |
| 2026-04-30 19:58 | 37.91390 | -77.34660 | 17476 ft | 375 kts | 6° |
| 2026-04-30 19:59 | 37.93904 | -77.33903 | 16997 ft | 364 kts | 6° |
| 2026-04-30 19:59 | 37.96338 | -77.33181 | 16462 ft | 357 kts | 6° |
| 2026-04-30 19:59 | 38.01088 | -77.31749 | 15374 ft | 353 kts | 6° |
| 2026-04-30 20:00 | 38.03519 | -77.31020 | 14818 ft | 366 kts | 7° |
| 2026-04-30 20:00 | 38.05985 | -77.30273 | 14245 ft | 362 kts | 7° |
| 2026-04-30 20:00 | 38.08424 | -77.29517 | 13672 ft | 354 kts | 7° |
| 2026-04-30 20:00 | 38.10778 | -77.28770 | 13116 ft | 346 kts | 7° |
| 2026-04-30 20:01 | 38.15011 | -77.27432 | 12142 ft | 331 kts | 8° |
| 2026-04-30 20:01 | 38.17202 | -77.26732 | 11626 ft | 325 kts | 9° |
| 2026-04-30 20:01 | 38.19387 | -77.26022 | 11117 ft | 324 kts | 9° |
| 2026-04-30 20:02 | 38.23635 | -77.24179 | 10324 ft | 318 kts | 18° |
| 2026-04-30 20:02 | 38.25636 | -77.23118 | 10190 ft | 305 kts | 18° |
| 2026-04-30 20:03 | 38.29437 | -77.21169 | 9777 ft | 288 kts | 16° |
| 2026-04-30 20:03 | 38.31318 | -77.20258 | 9382 ft | 287 kts | 16° |
| 2026-04-30 20:03 | 38.33178 | -77.19366 | 9014 ft | 286 kts | 16° |
| 2026-04-30 20:03 | 38.35016 | -77.18475 | 8650 ft | 284 kts | 17° |
| 2026-04-30 20:04 | 38.36867 | -77.17567 | 8297 ft | 282 kts | 17° |
| 2026-04-30 20:04 | 38.38707 | -77.16663 | 7942 ft | 280 kts | 17° |
| 2026-04-30 20:04 | 38.40520 | -77.15778 | 7577 ft | 278 kts | 17° |
| 2026-04-30 20:05 | 38.44088 | -77.14017 | 6876 ft | 273 kts | 18° |
| 2026-04-30 20:05 | 38.45832 | -77.13130 | 6529 ft | 270 kts | 19° |
| 2026-04-30 20:05 | 38.49310 | -77.11372 | 5844 ft | 265 kts | 18° |
| 2026-04-30 20:06 | 38.51002 | -77.10530 | 5518 ft | 262 kts | 17° |
| 2026-04-30 20:06 | 38.52698 | -77.09712 | 5183 ft | 260 kts | 16° |
| 2026-04-30 20:06 | 38.54404 | -77.08907 | 4841 ft | 258 kts | 16° |
| 2026-04-30 20:06 | 38.56067 | -77.08109 | 4516 ft | 256 kts | 17° |
| 2026-04-30 20:07 | 38.57713 | -77.07294 | 4225 ft | 252 kts | 17° |
| 2026-04-30 20:07 | 38.59309 | -77.06479 | 4115 ft | 241 kts | 18° |
| 2026-04-30 20:07 | 38.62243 | -77.04993 | 4002 ft | 212 kts | 16° |
| 2026-04-30 20:08 | 38.63581 | -77.04345 | 3908 ft | 198 kts | 15° |
| 2026-04-30 20:08 | 38.64856 | -77.03724 | 3654 ft | 193 kts | 16° |
| 2026-04-30 20:08 | 38.66106 | -77.03262 | 3427 ft | 181 kts | 1° |
| 2026-04-30 20:08 | 38.67324 | -77.03172 | 3250 ft | 170 kts | 355° |
| 2026-04-30 20:09 | 38.68473 | -77.03139 | 3083 ft | 162 kts | 356° |
| 2026-04-30 20:09 | 38.69584 | -77.03087 | 2834 ft | 159 kts | 356° |
| 2026-04-30 20:09 | 38.71688 | -77.02950 | 2534 ft | 137 kts | 356° |
| 2026-04-30 20:10 | 38.73587 | -77.02635 | 1831 ft | 137 kts | 2° |
| 2026-04-30 20:10 | 38.74504 | -77.02513 | 1502 ft | 131 kts | 353° |
| 2026-04-30 20:10 | 38.75429 | -77.02544 | 1154 ft | 136 kts | 355° |
| 2026-04-30 20:11 | 38.77383 | -77.02681 | 1504 ft | 125 kts | 344° |
| 2026-04-30 20:11 | 38.78277 | -77.02862 | 1101 ft | 136 kts | 346° |
| 2026-04-30 20:11 | 38.79230 | -77.02996 | 931 ft | 139 kts | 348° |
| 2026-04-30 20:12 | 38.81173 | -77.03188 | 720 ft | 144 kts | 349° |
| 2026-04-30 20:12 | 38.82158 | -77.03329 | 496 ft | 140 kts | 350° |
| 2026-04-30 20:12 | 38.83090 | -77.03485 | 269 ft | 132 kts | 346° |
| 2026-04-30 20:13 | 38.84024 | -77.03622 | 56 ft | 136 kts | 342° |
| 2026-04-30 20:13 | 38.84963 | -77.03741 | 22 ft | 136 kts | 352° |
| 2026-04-30 20:13 | 38.85841 | -77.03837 | 19 ft | 80 kts | 352° |
| 2026-04-30 20:13 | 38.86043 | -77.03968 | 17 ft | 0 kts | 210° |